Lennep, MT

5:49 PM MDT on August 31, 2015 (GMT -0600)
Mission | | Change Station
CLOSE
Current Station
Airport
Location: Livingston,
Elevation: 4656 ft
Nearby Weather Stations

Elev 4656 ft 45.70 °N, 110.44 °W | Updated 56 minutes ago

Clear
Clear
81 °F
Feels Like 81 °F
N
15
Wind Variable Wind from SW

Today
High -- | Low -- °F
--% Chance of Precip.
Yesterday
High -- | Low -- °F
Precip. -- in
6:40 AM 8:03 PM
Waning Gibbous, 93% visible
Pressure 29.81 in
Visibility 10.0 miles
Clouds Few 10000 ft
Dew Point 30 °F
Humidity 16%
Rainfall 0.00 in
Snow Depth Not available.
UV 3 out of 12
Pollen 9.30 out of 12
Air Quality Not available.
Flu Activity Not available.
METAR KLVM 312253Z AUTO 22013KT 10SM FEW100 27/M01 A2992 RMK AO2 PK WND 23030/2214 SLP092 T02721011
Pressure 29.81 in
Visibility 10.0 miles
Clouds Few 10000 ft
Dew Point 30 °F
Humidity 16%
Rainfall 0.00 in
Snow Depth Not available.
UV 3 out of 12
Pollen 9.30 out of 12
Air Quality Not available.
Flu Activity Not available.
METAR KLVM 312253Z AUTO 22013KT 10SM FEW100 27/M01 A2992 RMK AO2 PK WND 23030/2214 SLP092 T02721011

10-Day Weather Forecast

×

Almanac

Astronomy

Aug. 31, 2015 Rise Set
Actual Time
Civil Twilight
Nautical Twilight
Astronomical Twilight
Moon
Length of Visible Light
Length of Day
Tomorrow will be .
, % of the Moon is Illuminated

Today's Extremes

State Highs State Lows

Community

WunderPhotos

Upload Photos

1,851,395 photos uploaded!

WunderBlogs® & News

Nearby

Air Quality

  Air Quality AQ Index Pollutant
Not available.

Snow Depth

Station Depth Elevation

Earthquake Activity

City Distance Mag. Time & Date
Minimum magnitude displayed is 2.5.

Coastal Water Temperatures

Place Temperature

Stations

Nearby Weather Stations

Station Location Temp. Windchill Dew Point Humidity Wind Precip. Elev Updated Type